Doris Moran — WRU2125 — position and weather

sailwx.info

Track history (hours):
 
Tides and Currents Weather Stations Pressure Air Temp Water Temp Dewpoint Dewpoint Depression Visibility Wind Speed Wind Dir Waves Ship Positions

Doris Moran

Owner: MORAN TOWING CORPORATION, New Canaan, CT. More information available from US FCC via Universal Licensing System and Coast Guard Vessel Documentation Center.

Last reported at 2016-Sep-25 15:33 UTC. Time now 2016-Sep-25 15:45 UTC.
Position N 40°39' W 074°07'.

Length 36 m; draft 5.3 m.

Type: Tug. MMSI: 366939790.

Date/timePositionNaut miles runAvg speedWind from/ knotsBaromVisibWave heightAir tempDewpointWater temp
2016-Sep-25 15:33N 40°39' W 074°07'1 1.1
2016-Sep-25 14:33N 40°39' W 074°06'2 0.9
2016-Sep-25 12:31N 40°38' W 074°08'0 0.0
2016-Sep-25 11:31N 40°38' W 074°08'0 0.0
2016-Sep-25 10:28N 40°38' W 074°08'0 0.0
2016-Sep-25 09:22N 40°38' W 074°08'0 0.0
2016-Sep-25 07:31N 40°38' W 074°08'0 0.0
2016-Sep-25 04:31N 40°38' W 074°08'0 0.0
2016-Sep-25 00:25N 40°38' W 074°08'0 0.0
2016-Sep-24 22:34N 40°38' W 074°08'0 0.0
2016-Sep-24 21:33N 40°38' W 074°08'6 2.9
2016-Sep-24 19:34N 40°40' W 074°00'3 3.3
2016-Sep-24 18:33N 40°37' W 074°03'3 3.2
2016-Sep-24 17:34N 40°41' W 074°02'5 5.2
2016-Sep-24 16:33N 40°45' W 073°58'89 3.3
2016-Sep-23 13:21N 41°14' W 072°07'36 9.4
2016-Sep-23 09:33N 41°18' W 071°20'3110.3
2016-Sep-23 06:33N 41°34' W 070°44'14 6.1
2016-Sep-23 04:15N 41°46' W 070°34'3 4.6
2016-Sep-23 03:34N 41°46' W 070°30'6 5.7
2016-Sep-23 02:34N 41°52' W 070°28'10 9.6
2016-Sep-23 01:34N 42°01' W 070°30'10 9.7
2016-Sep-23 00:34N 42°11' W 070°34'1010.4
2016-Sep-22 23:34N 42°18' W 070°43'16 5.3
2016-Sep-22 20:34N 42°23' W 071°04'0 0.0
2016-Sep-22 12:33N 42°23' W 071°04'24 3.0
2016-Sep-22 04:34N 42°12' W 070°35'7 7.1
2016-Sep-22 03:34N 42°05' W 070°31'150 7.8
2016-Sep-21 08:18N 40°58' W 073°31'23 8.3
2016-Sep-21 05:33N 40°46' W 073°57'6 3.2
2016-Sep-21 03:33N 40°41' W 074°01'4 3.7
2016-Sep-21 02:31N 40°39' W 074°06'0 0.0
2016-Sep-20 17:33N 40°39' W 074°06'11 3.5
2016-Sep-20 14:33N 40°30' W 073°58'40 8.9
2016-Sep-20 10:06N 39°51' W 073°58'14 9.0
2016-Sep-20 08:33N 39°37' W 074°03'9 8.8
2016-Sep-20 07:33N 39°29' W 074°08'65 5.5
2016-Sep-19 19:33N 39°26' W 075°33'7 7.4
2016-Sep-19 18:33N 39°34' W 075°34'16 8.0
2016-Sep-19 16:32N 39°30' W 075°55'20 9.5
2016-Sep-19 14:27N 39°17' W 076°14'8 9.5
2016-Sep-19 13:33N 39°09' W 076°19'7 7.2
2016-Sep-19 12:33N 39°12' W 076°28'1 0.3
2016-Sep-19 09:31N 39°13' W 076°28'0 0.0
2016-Sep-19 06:31N 39°13' W 076°28'0 0.0
2016-Sep-19 03:10N 39°13' W 076°28'0 0.0
2016-Sep-19 02:31N 39°13' W 076°28'0 0.0
2016-Sep-19 00:28N 39°13' W 076°28'0 0.0
2016-Sep-17 22:33N 39°12' W 076°28'8 7.7
2016-Sep-17 21:27N 39°11' W 076°17'2310.7
2016-Sep-17 19:16N 39°29' W 075°57'19 3.3
2016-Sep-17 13:33N 39°33' W 075°33'8 8.4
2016-Sep-17 12:33N 39°24' W 075°30'2411.8
2016-Sep-17 10:33N 39°06' W 075°12'9 8.7
2016-Sep-17 09:32N 38°57' W 075°07'9 8.1
2016-Sep-17 08:22N 38°49' W 075°02'9 8.5
2016-Sep-17 07:15N 38°51' W 074°50'16 9.3
2016-Sep-17 05:33N 39°03' W 074°37'10 9.7
2016-Sep-17 04:32N 39°09' W 074°27'39 9.8
2016-Sep-17 00:33N 39°42' W 074°01'57 8.1
2016-Sep-16 17:33N 40°39' W 074°06'0 0.0
2016-Sep-16 15:33N 40°39' W 074°06'4 1.5
2016-Sep-16 12:33N 40°40' W 074°00'4 1.3
2016-Sep-16 09:33N 40°39' W 074°05'2 1.0
2016-Sep-16 07:32N 40°38' W 074°08'1 0.2
2016-Sep-16 03:33N 40°39' W 074°09'1 1.1
2016-Sep-16 02:34N 40°40' W 074°09'1 0.7
2016-Sep-16 00:30N 40°38' W 074°08'3 1.6
2016-Sep-15 22:33N 40°38' W 074°12'2 2.5
2016-Sep-15 21:33N 40°39' W 074°09'1 1.4
2016-Sep-15 20:33N 40°39' W 074°07'0 0.2
2016-Sep-15 18:33N 40°38' W 074°08'  
Track history (hours):
 
Tides and Currents Weather Stations Pressure Air Temp Water Temp Dewpoint Dewpoint Depression Visibility Wind Speed Wind Dir Waves Ship Positions

Doris Moran

Owner: MORAN TOWING CORPORATION, New Canaan, CT. More information available from US FCC via Universal Licensing System and Coast Guard Vessel Documentation Center.

Last reported at 2016-Sep-25 15:33 UTC. Time now 2016-Sep-25 15:45 UTC.
Position N 40°39' W 074°07'.

Length 36 m; draft 5.3 m.

Type: Tug. MMSI: 366939790.

Date/timePositionNaut miles runAvg speedWind from/ knotsBaromVisibWave heightAir tempDewpointWater temp
2016-Sep-25 15:33N 40°39' W 074°07'1 1.1
2016-Sep-25 14:33N 40°39' W 074°06'2 0.9
2016-Sep-25 12:31N 40°38' W 074°08'0 0.0
2016-Sep-25 11:31N 40°38' W 074°08'0 0.0
2016-Sep-25 10:28N 40°38' W 074°08'0 0.0
2016-Sep-25 09:22N 40°38' W 074°08'0 0.0
2016-Sep-25 07:31N 40°38' W 074°08'0 0.0
2016-Sep-25 04:31N 40°38' W 074°08'0 0.0
2016-Sep-25 00:25N 40°38' W 074°08'0 0.0
2016-Sep-24 22:34N 40°38' W 074°08'0 0.0
2016-Sep-24 21:33N 40°38' W 074°08'6 2.9
2016-Sep-24 19:34N 40°40' W 074°00'3 3.3
2016-Sep-24 18:33N 40°37' W 074°03'3 3.2
2016-Sep-24 17:34N 40°41' W 074°02'5 5.2
2016-Sep-24 16:33N 40°45' W 073°58'89 3.3
2016-Sep-23 13:21N 41°14' W 072°07'36 9.4
2016-Sep-23 09:33N 41°18' W 071°20'3110.3
2016-Sep-23 06:33N 41°34' W 070°44'14 6.1
2016-Sep-23 04:15N 41°46' W 070°34'3 4.6
2016-Sep-23 03:34N 41°46' W 070°30'6 5.7
2016-Sep-23 02:34N 41°52' W 070°28'10 9.6
2016-Sep-23 01:34N 42°01' W 070°30'10 9.7
2016-Sep-23 00:34N 42°11' W 070°34'1010.4
2016-Sep-22 23:34N 42°18' W 070°43'16 5.3
2016-Sep-22 20:34N 42°23' W 071°04'0 0.0
2016-Sep-22 12:33N 42°23' W 071°04'24 3.0
2016-Sep-22 04:34N 42°12' W 070°35'7 7.1
2016-Sep-22 03:34N 42°05' W 070°31'150 7.8
2016-Sep-21 08:18N 40°58' W 073°31'23 8.3
2016-Sep-21 05:33N 40°46' W 073°57'6 3.2
2016-Sep-21 03:33N 40°41' W 074°01'4 3.7
2016-Sep-21 02:31N 40°39' W 074°06'0 0.0
2016-Sep-20 17:33N 40°39' W 074°06'11 3.5
2016-Sep-20 14:33N 40°30' W 073°58'40 8.9
2016-Sep-20 10:06N 39°51' W 073°58'14 9.0
2016-Sep-20 08:33N 39°37' W 074°03'9 8.8
2016-Sep-20 07:33N 39°29' W 074°08'65 5.5
2016-Sep-19 19:33N 39°26' W 075°33'7 7.4
2016-Sep-19 18:33N 39°34' W 075°34'16 8.0
2016-Sep-19 16:32N 39°30' W 075°55'20 9.5
2016-Sep-19 14:27N 39°17' W 076°14'8 9.5
2016-Sep-19 13:33N 39°09' W 076°19'7 7.2
2016-Sep-19 12:33N 39°12' W 076°28'1 0.3
2016-Sep-19 09:31N 39°13' W 076°28'0 0.0
2016-Sep-19 06:31N 39°13' W 076°28'0 0.0
2016-Sep-19 03:10N 39°13' W 076°28'0 0.0
2016-Sep-19 02:31N 39°13' W 076°28'0 0.0
2016-Sep-19 00:28N 39°13' W 076°28'0 0.0
2016-Sep-17 22:33N 39°12' W 076°28'8 7.7
2016-Sep-17 21:27N 39°11' W 076°17'2310.7
2016-Sep-17 19:16N 39°29' W 075°57'19 3.3
2016-Sep-17 13:33N 39°33' W 075°33'8 8.4
2016-Sep-17 12:33N 39°24' W 075°30'2411.8
2016-Sep-17 10:33N 39°06' W 075°12'9 8.7
2016-Sep-17 09:32N 38°57' W 075°07'9 8.1
2016-Sep-17 08:22N 38°49' W 075°02'9 8.5
2016-Sep-17 07:15N 38°51' W 074°50'16 9.3
2016-Sep-17 05:33N 39°03' W 074°37'10 9.7
2016-Sep-17 04:32N 39°09' W 074°27'39 9.8
2016-Sep-17 00:33N 39°42' W 074°01'57 8.1
2016-Sep-16 17:33N 40°39' W 074°06'0 0.0
2016-Sep-16 15:33N 40°39' W 074°06'4 1.5
2016-Sep-16 12:33N 40°40' W 074°00'4 1.3
2016-Sep-16 09:33N 40°39' W 074°05'2 1.0
2016-Sep-16 07:32N 40°38' W 074°08'1 0.2
2016-Sep-16 03:33N 40°39' W 074°09'1 1.1
2016-Sep-16 02:34N 40°40' W 074°09'1 0.7
2016-Sep-16 00:30N 40°38' W 074°08'3 1.6
2016-Sep-15 22:33N 40°38' W 074°12'2 2.5
2016-Sep-15 21:33N 40°39' W 074°09'1 1.4
2016-Sep-15 20:33N 40°39' W 074°07'0 0.2
2016-Sep-15 18:33N 40°38' W 074°08'  

Dump ship's entire track history